Time;durP1;ratioP1;P1;durP2;ratioP2;P2;SDS_P1;SDS_P2;PMS_P1;PMS_P2;Temp;Humidity;BMP_temperature;BMP_pressure;BME280_temperature;BME280_humidity;BME280_pressure;Samples;Min_cycle;Max_cycle;Signal;HPM_P1;HPM_P2
2022/03/03 00:01:13;;;;;;;0.20;0.20;;;-2.00;1.00;226.50;231333.00;;;;5062626;28;20222;-71
2022/03/03 00:03:42;;;;;;;0.20;0.20;;;-1.90;1.00;226.50;231333.00;;;;5068293;28;20202;-70
2022/03/03 00:06:10;;;;;;;0.20;0.20;;;-1.90;1.00;226.50;231333.00;;;;5084943;28;20197;-70
2022/03/03 00:08:38;;;;;;;0.20;0.20;;;-1.80;1.00;226.50;231333.00;;;;5070373;28;20221;-70
2022/03/03 00:11:08;;;;;;;0.20;0.20;;;-1.80;1.00;226.50;231333.00;;;;5067918;28;20209;-70
2022/03/03 00:13:36;;;;;;;0.20;0.20;;;-1.80;1.00;226.50;231333.00;;;;5069922;28;20276;-70
2022/03/03 00:16:04;;;;;;;0.20;0.20;;;-1.80;1.00;226.50;231333.00;;;;5069138;28;20619;-70
2022/03/03 00:18:32;;;;;;;0.20;0.20;;;-1.80;1.00;226.50;231333.00;;;;5069830;28;20682;-70
2022/03/03 00:21:00;;;;;;;0.20;0.20;;;-1.70;1.00;226.50;231333.00;;;;5073211;28;20271;-70
2022/03/03 00:23:28;;;;;;;0.20;0.20;;;-1.70;99.90;226.50;231333.00;;;;5069039;28;20208;-69
2022/03/03 00:25:56;;;;;;;0.20;0.20;;;-1.70;99.90;226.50;231333.00;;;;5069589;28;20202;-69
2022/03/03 00:28:27;;;;;;;0.20;0.20;;;-1.80;99.90;226.50;231333.00;;;;5069055;28;20247;-69
2022/03/03 00:30:56;;;;;;;0.20;0.20;;;-1.90;99.90;226.50;231333.00;;;;5069981;28;20647;-69
2022/03/03 00:33:24;;;;;;;0.17;0.17;;;-1.90;1.00;226.50;231333.00;;;;5069225;28;20296;-70
2022/03/03 00:35:52;;;;;;;0.10;0.10;;;-1.80;1.00;226.50;231333.00;;;;5068415;28;20233;-69
2022/03/03 00:38:20;;;;;;;0.20;0.20;;;-1.90;1.00;226.50;231333.00;;;;5065584;28;20190;-70
2022/03/03 00:40:48;;;;;;;0.20;0.20;;;-1.80;1.00;226.50;231333.00;;;;5068054;28;20193;-69
2022/03/03 00:43:16;;;;;;;0.10;0.10;;;-1.90;99.90;226.50;231333.00;;;;5068979;28;20601;-69
2022/03/03 00:45:45;;;;;;;0.20;0.20;;;-2.10;1.00;226.50;231333.00;;;;5068342;28;20258;-70
2022/03/03 00:48:13;;;;;;;0.20;0.20;;;-2.10;1.00;226.50;231333.00;;;;5070696;28;20198;-69
2022/03/03 00:50:42;;;;;;;0.20;0.20;;;-2.20;1.00;226.50;231333.00;;;;5070264;28;20221;-71
2022/03/03 00:53:10;;;;;;;0.20;0.20;;;-2.20;77.20;226.50;231333.00;;;;5066557;28;20200;-68
2022/03/03 00:55:38;;;;;;;0.20;0.20;;;-2.00;99.90;226.50;231333.00;;;;5069018;28;20615;-70
2022/03/03 00:58:06;;;;;;;0.20;0.20;;;-2.10;1.00;226.50;231333.00;;;;5069479;28;20707;-70
2022/03/03 01:00:34;;;;;;;0.20;0.20;;;-2.00;1.00;226.50;231333.00;;;;5073158;28;20236;-70
2022/03/03 01:03:04;;;;;;;0.10;0.10;;;-2.00;1.00;226.50;231333.00;;;;5071969;28;20198;-69
2022/03/03 01:05:32;;;;;;;0.10;0.10;;;-2.00;99.90;226.50;231333.00;;;;5068697;28;20312;-69
2022/03/03 01:08:00;;;;;;;0.20;0.20;;;-2.00;99.90;226.50;231333.00;;;;5068827;28;20209;-70
2022/03/03 01:10:28;;;;;;;0.20;0.20;;;-2.00;1.00;226.50;231333.00;;;;5068167;28;20221;-70
2022/03/03 01:12:56;;;;;;;0.20;0.20;;;-2.20;53.60;226.50;231333.00;;;;5068688;28;20263;-70
2022/03/03 01:15:24;;;;;;;0.20;0.20;;;-2.20;99.90;226.50;231333.00;;;;5068333;28;20190;-71
2022/03/03 01:17:52;;;;;;;0.20;0.20;;;-2.30;1.00;226.50;231333.00;;;;5070977;28;20205;-71
2022/03/03 01:20:22;;;;;;;0.20;0.20;;;-2.40;1.00;226.50;231333.00;;;;5070349;28;20682;-70
2022/03/03 01:22:50;;;;;;;0.20;0.20;;;-2.30;99.90;226.50;231333.00;;;;5084819;28;20699;-70
2022/03/03 01:25:18;;;;;;;0.20;0.20;;;-2.30;99.90;226.50;231333.00;;;;5069839;28;20614;-71
2022/03/03 01:27:46;;;;;;;0.20;0.20;;;-2.10;99.90;226.50;231333.00;;;;5069612;28;20346;-71
2022/03/03 01:30:14;;;;;;;0.20;0.20;;;-2.10;1.00;226.50;231333.00;;;;5070059;28;20226;-70
2022/03/03 01:32:42;;;;;;;0.20;0.20;;;-2.10;1.00;226.50;231333.00;;;;5071839;28;20209;-70
2022/03/03 01:35:10;;;;;;;0.20;0.20;;;-2.20;1.00;226.50;231333.00;;;;5070840;28;20205;-71
2022/03/03 01:37:39;;;;;;;0.10;0.10;;;-2.20;1.00;226.50;231333.00;;;;5068804;28;20198;-70
2022/03/03 01:40:09;;;;;;;0.10;0.10;;;-2.30;1.00;226.50;231333.00;;;;5068632;28;20232;-71
2022/03/03 01:42:38;;;;;;;0.20;0.20;;;-2.30;1.00;226.50;231333.00;;;;5070630;28;20275;-71
2022/03/03 01:45:07;;;;;;;0.20;0.20;;;-2.40;1.00;226.50;231333.00;;;;5069737;28;20198;-71
2022/03/03 01:47:36;;;;;;;0.20;0.20;;;-2.50;1.00;226.50;231333.00;;;;5066163;28;20550;-69
2022/03/03 01:50:06;;;;;;;0.20;0.20;;;-2.50;1.00;226.50;231333.00;;;;5067447;28;20217;-70
2022/03/03 01:52:34;;;;;;;0.20;0.20;;;-2.50;1.00;226.50;231333.00;;;;5067234;28;20317;-69
2022/03/03 01:55:05;;;;;;;0.20;0.20;;;-2.70;99.90;226.50;231333.00;;;;5066805;28;20221;-70
2022/03/03 01:57:34;;;;;;;0.20;0.20;;;-2.90;1.00;226.50;231333.00;;;;5067134;28;20223;-70
2022/03/03 02:00:02;;;;;;;0.20;0.20;;;-3.00;1.00;226.50;231333.00;;;;5067016;28;20670;-70
2022/03/03 02:02:39;;;;;;;0.20;0.20;;;-3.10;22.80;226.50;231333.00;;;;5066571;28;20227;-70
2022/03/03 02:05:08;;;;;;;0.20;0.20;;;-3.10;99.90;226.50;231333.00;;;;5067828;28;20279;-70
2022/03/03 02:07:36;;;;;;;0.20;0.20;;;-3.20;1.00;226.50;231333.00;;;;5065671;28;20213;-70
2022/03/03 02:10:07;;;;;;;0.20;0.20;;;-3.10;1.00;226.50;231333.00;;;;5084117;28;20225;-71
2022/03/03 02:12:35;;;;;;;0.20;0.20;;;-3.10;1.00;226.50;231333.00;;;;5064830;28;20775;-70
2022/03/03 02:15:05;;;;;;;0.20;0.20;;;-3.10;99.90;226.50;231333.00;;;;5068583;28;20196;-69
2022/03/03 02:17:33;;;;;;;0.20;0.20;;;-3.20;1.00;226.50;231333.00;;;;5067975;28;20197;-71
2022/03/03 02:20:07;;;;;;;0.20;0.20;;;-3.20;1.00;226.50;231333.00;;;;5070984;28;20218;-69
2022/03/03 02:22:36;;;;;;;0.20;0.20;;;-3.30;1.00;226.50;231333.00;;;;5068727;28;20621;-68
2022/03/03 02:25:04;;;;;;;0.20;0.20;;;-3.20;1.00;226.50;231333.00;;;;5069963;28;20213;-69
2022/03/03 02:27:33;;;;;;;0.20;0.20;;;-3.10;1.00;226.50;231333.00;;;;5072132;28;20201;-67
2022/03/03 02:30:02;;;;;;;0.20;0.20;;;-3.20;1.00;226.50;231333.00;;;;5072831;28;20209;-69
2022/03/03 02:32:30;;;;;;;0.30;0.30;;;-3.20;1.00;226.50;231333.00;;;;5071447;28;20239;-70
2022/03/03 02:34:57;;;;;;;0.25;0.25;;;-3.20;1.00;226.50;231333.00;;;;5068624;28;20194;-69
2022/03/03 02:37:33;;;;;;;0.20;0.20;;;-3.20;1.00;226.50;231333.00;;;;5070348;28;20202;-69
2022/03/03 02:40:01;;;;;;;0.20;0.20;;;-3.10;1.00;226.50;231333.00;;;;5072075;28;20213;-69
2022/03/03 02:42:30;;;;;;;0.10;0.10;;;-3.20;1.00;226.50;231333.00;;;;5071351;28;20217;-70
2022/03/03 02:44:58;;;;;;;0.20;0.20;;;-3.10;99.90;226.50;231333.00;;;;5069863;28;20251;-70
2022/03/03 02:47:26;;;;;;;0.20;0.20;;;-3.10;1.00;226.50;231333.00;;;;5070827;28;20617;-70
2022/03/03 02:49:55;;;;;;;0.20;0.20;;;-3.00;1.00;226.50;231333.00;;;;5067338;28;20232;-70
2022/03/03 02:52:23;;;;;;;0.20;0.20;;;-3.00;1.00;226.50;231333.00;;;;5062937;28;20287;-70
2022/03/03 02:54:52;;;;;;;0.20;0.20;;;-3.00;1.00;226.50;231333.00;;;;5065536;28;20190;-70
2022/03/03 03:00:08;;;;;;;0.20;0.20;;;-2.70;99.90;226.50;231333.00;;;;5065747;28;20573;-70
2022/03/03 03:02:36;;;;;;;0.20;0.20;;;-2.70;99.90;226.50;231333.00;;;;5066530;28;20218;-70
2022/03/03 03:05:04;;;;;;;0.20;0.20;;;-2.70;1.00;226.50;231333.00;;;;5071225;28;20261;-70
2022/03/03 03:07:34;;;;;;;0.20;0.20;;;-2.70;99.90;226.50;231333.00;;;;5071221;28;20603;-70
2022/03/03 03:10:04;;;;;;;0.20;0.20;;;-2.70;99.90;226.50;231333.00;;;;5069617;28;20213;-69
2022/03/03 03:12:32;;;;;;;0.20;0.20;;;-2.90;99.90;226.50;231333.00;;;;5068919;28;20229;-69
2022/03/03 03:15:00;;;;;;;0.20;0.20;;;-2.70;1.00;226.50;231333.00;;;;5070967;28;20201;-69
2022/03/03 03:17:29;;;;;;;0.20;0.20;;;-2.60;1.00;226.50;231333.00;;;;5074571;28;20219;-70
2022/03/03 03:19:57;;;;;;;0.10;0.10;;;-2.50;81.20;226.50;231333.00;;;;5067295;28;20209;-70
2022/03/03 03:22:25;;;;;;;0.20;0.20;;;-2.50;1.00;226.50;231333.00;;;;5067102;28;20274;-69
2022/03/03 03:24:53;;;;;;;0.20;0.20;;;-2.80;1.00;226.50;231333.00;;;;5068707;28;20573;-70
2022/03/03 03:27:22;;;;;;;0.20;0.20;;;-2.90;87.10;226.50;231333.00;;;;5074562;28;20209;-69
2022/03/03 03:29:50;;;;;;;0.20;0.20;;;-2.90;99.90;226.50;231333.00;;;;5068923;28;20248;-70
2022/03/03 03:32:18;;;;;;;0.20;0.20;;;-3.00;99.90;226.50;231333.00;;;;5068378;28;20213;-70
2022/03/03 03:34:46;;;;;;;0.20;0.20;;;-3.20;1.00;226.50;231333.00;;;;5067813;28;20206;-70
2022/03/03 03:37:14;;;;;;;0.20;0.20;;;-3.30;1.00;226.50;231333.00;;;;5067804;28;20198;-72
2022/03/03 03:39:42;;;;;;;0.20;0.20;;;-3.40;99.90;226.50;231333.00;;;;5071832;28;20250;-71
2022/03/03 03:42:10;;;;;;;0.30;0.30;;;-3.30;99.90;226.50;231333.00;;;;5070209;28;20240;-71
2022/03/03 03:44:40;;;;;;;0.20;0.20;;;-3.40;99.90;226.50;231333.00;;;;5070548;28;20259;-71
2022/03/03 03:47:09;;;;;;;0.20;0.20;;;-3.40;1.00;226.50;231333.00;;;;5070154;28;20673;-71
2022/03/03 03:49:37;;;;;;;0.20;0.20;;;-3.30;1.00;226.50;231333.00;;;;5073005;28;20251;-69
2022/03/03 03:52:05;;;;;;;0.10;0.10;;;-3.20;1.00;226.50;231333.00;;;;5072960;28;20209;-69
2022/03/03 03:54:33;;;;;;;0.20;0.20;;;-3.10;1.00;226.50;231333.00;;;;5069271;28;20205;-69
2022/03/03 03:57:01;;;;;;;0.17;0.17;;;-3.00;1.00;226.50;231333.00;;;;5071358;28;20272;-70
2022/03/03 03:59:29;;;;;;;0.20;0.20;;;-3.00;1.00;226.50;231333.00;;;;5070933;28;21491;-71
2022/03/03 04:01:59;;;;;;;0.20;0.20;;;-3.00;1.00;226.50;231333.00;;;;5069193;28;23447;-70
2022/03/03 04:04:27;;;;;;;0.20;0.20;;;-3.00;1.00;226.50;231333.00;;;;5075304;28;20201;-70
2022/03/03 04:06:56;;;;;;;0.20;0.20;;;-2.90;1.00;226.50;231333.00;;;;5077374;28;20219;-70
2022/03/03 04:09:23;;;;;;;0.20;0.20;;;-3.00;99.90;226.50;231333.00;;;;5074154;28;20205;-71
2022/03/03 04:11:51;;;;;;;0.20;0.20;;;-3.00;99.90;226.50;231333.00;;;;5074231;28;20226;-71
2022/03/03 04:14:19;;;;;;;0.20;0.20;;;-3.00;99.90;226.50;231333.00;;;;5071428;28;20730;-70
2022/03/03 04:16:47;;;;;;;0.20;0.20;;;-3.00;99.90;226.50;231333.00;;;;5071076;28;20202;-71
2022/03/03 04:19:17;;;;;;;0.20;0.20;;;-3.00;1.00;226.50;231333.00;;;;5070640;28;20325;-71
2022/03/03 04:21:45;;;;;;;0.20;0.20;;;-3.20;99.90;226.50;231333.00;;;;5068641;28;20225;-70
2022/03/03 04:24:13;;;;;;;0.20;0.20;;;-3.30;99.90;226.50;231333.00;;;;5085839;28;20651;-71
2022/03/03 04:26:41;;;;;;;0.20;0.20;;;-3.30;99.90;226.50;231333.00;;;;5072623;28;20794;-69
2022/03/03 04:29:09;;;;;;;0.20;0.20;;;-3.30;1.00;226.50;231333.00;;;;5072661;28;20205;-69
2022/03/03 04:31:37;;;;;;;0.20;0.20;;;-3.10;1.00;226.50;231333.00;;;;5073173;28;20299;-69
2022/03/03 04:34:05;;;;;;;0.20;0.20;;;-3.00;1.00;226.50;231333.00;;;;5071536;28;20276;-69
2022/03/03 04:36:34;;;;;;;0.20;0.20;;;-2.90;1.00;226.50;231333.00;;;;5070637;28;20627;-69
2022/03/03 04:39:02;;;;;;;0.20;0.20;;;-3.00;99.90;226.50;231333.00;;;;5069607;28;20190;-70
2022/03/03 04:41:30;;;;;;;0.20;0.20;;;-3.20;95.00;226.50;231333.00;;;;5073826;28;20251;-69
2022/03/03 04:43:58;;;;;;;0.20;0.20;;;-3.30;99.90;226.50;231333.00;;;;5072008;28;20556;-69
2022/03/03 04:46:26;;;;;;;0.20;0.20;;;-3.40;99.90;226.50;231333.00;;;;5071434;28;20726;-70
2022/03/03 04:48:59;;;;;;;0.20;0.20;;;-3.40;1.00;226.50;231333.00;;;;5071978;28;20236;-69
2022/03/03 04:51:27;;;;;;;0.20;0.20;;;-3.50;1.00;226.50;231333.00;;;;5070484;28;20587;-70
2022/03/03 04:53:57;;;;;;;0.20;0.20;;;-3.40;1.00;226.50;231333.00;;;;5070985;28;20190;-70
2022/03/03 04:56:25;;;;;;;0.20;0.20;;;-3.40;1.00;226.50;231333.00;;;;5067629;28;20254;-70
2022/03/03 04:58:53;;;;;;;0.20;0.20;;;-3.50;1.00;226.50;231333.00;;;;5069277;28;20206;-70
2022/03/03 05:01:20;;;;;;;0.20;0.20;;;-3.60;1.00;226.50;231333.00;;;;5069140;28;20217;-70
2022/03/03 05:03:49;;;;;;;0.30;0.30;;;-3.60;1.00;226.50;231333.00;;;;5069063;28;20592;-70
2022/03/03 05:06:17;;;;;;;0.30;0.30;;;-3.60;1.00;226.50;231333.00;;;;5070704;28;20245;-70
2022/03/03 05:08:45;;;;;;;0.20;0.20;;;-3.60;1.00;226.50;231333.00;;;;5072299;28;20194;-69
2022/03/03 05:11:15;;;;;;;0.20;0.20;;;-3.60;1.00;226.50;231333.00;;;;5069917;28;20226;-72
2022/03/03 05:13:43;;;;;;;0.20;0.20;;;-3.50;1.00;226.50;231333.00;;;;5069370;28;20197;-69
2022/03/03 05:16:11;;;;;;;0.20;0.20;;;-3.60;1.00;226.50;231333.00;;;;5067748;28;20728;-69
2022/03/03 05:18:39;;;;;;;0.30;0.30;;;-3.60;1.00;226.50;231333.00;;;;5068611;28;20193;-69
2022/03/03 05:21:07;;;;;;;0.20;0.20;;;-3.70;1.00;226.50;231333.00;;;;5067756;28;20253;-68
2022/03/03 05:23:35;;;;;;;0.20;0.20;;;-3.60;1.00;226.50;231333.00;;;;5067829;28;20243;-70
2022/03/03 05:26:03;;;;;;;0.20;0.20;;;-3.60;1.00;226.50;231333.00;;;;5065300;28;20264;-69
2022/03/03 05:28:33;;;;;;;0.30;0.30;;;-3.60;1.00;226.50;231333.00;;;;5067816;28;20240;-69
2022/03/03 05:31:01;;;;;;;0.25;0.25;;;-3.70;1.00;226.50;231333.00;;;;5065594;28;20232;-70
2022/03/03 05:33:30;;;;;;;0.20;0.20;;;-3.90;1.00;226.50;231333.00;;;;5069210;28;20248;-71
2022/03/03 05:36:02;;;;;;;0.20;0.20;;;-4.10;99.90;226.50;231333.00;;;;5071025;28;20255;-69
2022/03/03 05:38:33;;;;;;;0.20;0.20;;;-4.20;99.90;226.50;231333.00;;;;5091287;28;20592;-69
2022/03/03 05:41:02;;;;;;;0.20;0.20;;;-4.10;1.00;226.50;231333.00;;;;5072461;28;20263;-69
2022/03/03 05:43:33;;;;;;;0.20;0.20;;;-4.00;1.00;226.50;231333.00;;;;5068919;28;20210;-68
2022/03/03 05:46:02;;;;;;;0.20;0.20;;;-4.10;1.00;226.50;231333.00;;;;5065949;28;20194;-69
2022/03/03 05:48:31;;;;;;;0.20;0.20;;;-4.00;1.00;226.50;231333.00;;;;5076253;28;20206;-71
2022/03/03 05:50:59;;;;;;;0.20;0.20;;;-4.00;99.90;226.50;231333.00;;;;5067351;28;20237;-69
2022/03/03 05:53:27;;;;;;;0.20;0.20;;;-4.10;99.90;226.50;231333.00;;;;5065922;28;20226;-71
2022/03/03 05:55:58;;;;;;;0.20;0.20;;;-4.10;1.00;226.50;231333.00;;;;5065421;28;20190;-68
2022/03/03 05:58:34;;;;;;;0.20;0.20;;;-4.20;1.00;226.50;231333.00;;;;5066443;28;20581;-68
2022/03/03 06:01:03;;;;;;;0.20;0.20;;;-4.20;1.00;226.50;231333.00;;;;5065216;28;20228;-68
2022/03/03 06:03:32;;;;;;;0.20;0.20;;;-4.00;1.00;226.50;231333.00;;;;5067350;28;20624;-69
2022/03/03 06:06:17;;;;;;;0.20;0.20;;;-3.90;99.90;226.50;231333.00;;;;5065444;28;20226;-68
2022/03/03 06:08:57;;;;;;;0.20;0.20;;;-3.90;99.90;226.50;231333.00;;;;5067968;28;20236;-71
2022/03/03 06:11:28;;;;;;;0.20;0.20;;;-3.90;99.90;226.50;231333.00;;;;5073213;28;20225;-71
2022/03/03 06:14:05;;;;;;;0.20;0.20;;;-3.90;99.90;226.50;231333.00;;;;5082103;28;20243;-71
2022/03/03 06:16:39;;;;;;;0.20;0.20;;;-3.90;99.90;226.50;231333.00;;;;5074711;28;20201;-71
2022/03/03 06:19:07;;;;;;;0.30;0.30;;;-4.00;99.90;226.50;231333.00;;;;5071001;28;20277;-68
2022/03/03 06:21:35;;;;;;;0.20;0.20;;;-4.00;99.90;226.50;231333.00;;;;5072153;28;20631;-68
2022/03/03 06:24:05;;;;;;;0.20;0.20;;;-4.00;1.00;226.50;231333.00;;;;5074544;28;20622;-68
2022/03/03 06:26:34;;;;;;;0.20;0.20;;;-4.00;99.90;226.50;231333.00;;;;5074895;28;20205;-69
2022/03/03 06:29:03;;;;;;;0.20;0.20;;;-3.90;99.90;226.50;231333.00;;;;5072590;28;20197;-69
2022/03/03 06:31:31;;;;;;;0.20;0.20;;;-4.00;99.90;226.50;231333.00;;;;5067273;28;20599;-68
2022/03/03 06:34:00;;;;;;;0.20;0.20;;;-3.90;99.90;226.50;231333.00;;;;5065926;28;20603;-71
2022/03/03 06:36:28;;;;;;;0.20;0.20;;;-3.90;99.90;226.50;231333.00;;;;5065828;28;20263;-71
2022/03/03 06:38:56;;;;;;;0.28;0.28;;;-3.90;99.90;226.50;231333.00;;;;5061057;28;20194;-71
2022/03/03 06:41:25;;;;;;;0.20;0.20;;;-3.90;99.90;226.50;231333.00;;;;5066751;28;20221;-72
2022/03/03 06:43:53;;;;;;;0.20;0.20;;;-3.80;99.90;226.50;231333.00;;;;5082101;28;20201;-69
2022/03/03 06:46:21;;;;;;;0.30;0.30;;;-3.80;99.90;226.50;231333.00;;;;5066147;28;21013;-71
2022/03/03 06:48:49;;;;;;;0.20;0.20;;;-3.80;99.90;226.50;231333.00;;;;5066821;28;20202;-71
2022/03/03 06:51:23;;;;;;;0.20;0.20;;;-3.70;1.00;226.50;231333.00;;;;5067436;28;20574;-71
2022/03/03 06:53:56;;;;;;;0.20;0.20;;;-3.60;1.00;226.50;231333.00;;;;5066886;28;20262;-72
2022/03/03 06:56:25;;;;;;;0.20;0.20;;;-3.60;1.00;226.50;231333.00;;;;5064321;28;20198;-71
2022/03/03 06:58:56;;;;;;;0.22;0.22;;;-3.60;99.90;226.50;231333.00;;;;5064118;28;20206;-71
2022/03/03 07:01:28;;;;;;;0.20;0.20;;;-3.50;99.90;226.50;231333.00;;;;5065090;28;20259;-71
2022/03/03 07:03:57;;;;;;;0.20;0.20;;;-3.40;99.90;226.50;231333.00;;;;5065704;28;20206;-69
2022/03/03 07:06:27;;;;;;;0.20;0.20;;;-3.40;99.90;226.50;231333.00;;;;5064691;28;20194;-71
2022/03/03 07:08:55;;;;;;;0.20;0.20;;;-3.30;99.90;226.50;231333.00;;;;5064470;28;20248;-71
2022/03/03 07:11:24;;;;;;;0.20;0.20;;;-3.30;99.90;226.50;231333.00;;;;5063316;28;20229;-71
2022/03/03 07:13:52;;;;;;;0.20;0.20;;;-3.30;99.90;226.50;231333.00;;;;5065098;28;20229;-71
2022/03/03 07:16:35;;;;;;;0.20;0.20;;;-3.30;99.90;226.50;231333.00;;;;5062739;28;20205;-69
2022/03/03 07:19:06;;;;;;;0.20;0.20;;;-3.30;99.90;226.50;231333.00;;;;5064883;28;20202;-71
2022/03/03 07:21:56;;;;;;;0.20;0.20;;;-3.20;99.90;226.50;231333.00;;;;5065332;28;20232;-69
2022/03/03 07:24:31;;;;;;;0.20;0.20;;;-3.20;99.90;226.50;231333.00;;;;5069747;28;20221;-71
2022/03/03 07:27:04;;;;;;;0.22;0.22;;;-3.20;99.90;226.50;231333.00;;;;5065263;28;20198;-71
2022/03/03 07:29:36;;;;;;;0.30;0.30;;;-3.10;57.10;226.50;231333.00;;;;5061107;28;20197;-71
2022/03/03 07:32:08;;;;;;;0.20;0.20;;;-3.10;99.90;226.50;231333.00;;;;5065091;28;20700;-71
2022/03/03 07:34:39;;;;;;;0.20;0.20;;;-3.10;99.90;226.50;231333.00;;;;5066085;28;20205;-71
2022/03/03 07:37:14;;;;;;;0.30;0.30;;;-3.10;99.90;226.50;231333.00;;;;5063541;28;20246;-71
2022/03/03 07:39:46;;;;;;;0.20;0.20;;;-2.90;99.90;226.50;231333.00;;;;5065233;28;20189;-71
2022/03/03 07:42:18;;;;;;;0.20;0.20;;;-2.80;99.90;226.50;231333.00;;;;5064667;28;20248;-71
2022/03/03 07:44:47;;;;;;;0.20;0.20;;;-2.70;97.50;226.50;231333.00;;;;5063017;28;20280;-71
2022/03/03 07:47:16;;;;;;;0.20;0.20;;;-2.50;1.00;226.50;231333.00;;;;5064201;28;20206;-71
2022/03/03 07:49:46;;;;;;;0.20;0.20;;;-2.50;1.00;226.50;231333.00;;;;5063457;28;20205;-71
2022/03/03 07:52:16;;;;;;;0.20;0.20;;;-2.30;1.00;226.50;231333.00;;;;5064365;28;20259;-71
2022/03/03 07:54:44;;;;;;;0.20;0.20;;;-2.20;99.90;226.50;231333.00;;;;5064801;28;20671;-71
2022/03/03 07:57:17;;;;;;;0.20;0.20;;;-2.00;15.90;226.50;231333.00;;;;5062296;28;20248;-71
2022/03/03 07:59:49;;;;;;;0.20;0.20;;;-2.00;1.00;226.50;231333.00;;;;5063583;28;20679;-71
2022/03/03 08:02:24;;;;;;;0.20;0.20;;;-2.00;1.00;226.50;231333.00;;;;5064432;28;20252;-71
2022/03/03 08:04:53;;;;;;;0.20;0.20;;;-1.90;1.00;226.50;231333.00;;;;5065405;28;20189;-71
2022/03/03 08:07:23;;;;;;;0.20;0.20;;;-1.60;1.00;226.50;231333.00;;;;5063834;28;20207;-71
2022/03/03 08:09:59;;;;;;;0.20;0.20;;;-1.40;1.00;226.50;231333.00;;;;5065407;28;20194;-71
2022/03/03 08:12:31;;;;;;;0.10;0.10;;;-1.30;99.90;226.50;231333.00;;;;5062708;28;20209;-71
2022/03/03 08:15:00;;;;;;;0.20;0.20;;;-1.30;1.00;226.50;231333.00;;;;5066010;28;20675;-71
2022/03/03 08:17:28;;;;;;;0.10;0.10;;;-1.30;1.00;226.50;231333.00;;;;5064775;28;20267;-71
2022/03/03 08:19:57;;;;;;;0.10;0.10;;;-1.20;99.90;226.50;231333.00;;;;5060629;28;20221;-70
2022/03/03 08:22:27;;;;;;;0.20;0.20;;;-1.00;99.90;226.50;231333.00;;;;5062633;28;20218;-71
2022/03/03 08:24:58;;;;;;;0.20;0.20;;;-0.70;99.90;226.50;231333.00;;;;5067638;28;20201;-71
2022/03/03 08:27:28;;;;;;;0.20;0.20;;;-0.60;1.00;226.50;231333.00;;;;5068260;28;20194;-69
2022/03/03 08:30:01;;;;;;;0.20;0.20;;;-0.50;1.00;226.50;231333.00;;;;5068988;28;20287;-69
2022/03/03 08:32:37;;;;;;;0.20;0.20;;;-0.40;1.00;226.50;231333.00;;;;5068768;28;20217;-69
2022/03/03 08:35:12;;;;;;;0.10;0.10;;;-0.30;99.90;226.50;231333.00;;;;5068748;28;20232;-69
2022/03/03 08:37:44;;;;;;;0.10;0.10;;;-0.20;99.90;226.50;231333.00;;;;5067916;28;20201;-70
2022/03/03 08:40:16;;;;;;;0.10;0.10;;;-0.10;99.90;226.50;231333.00;;;;5068500;28;20678;-70
2022/03/03 08:42:48;;;;;;;0.10;0.10;;;0.00;99.90;226.50;231333.00;;;;5068563;28;20266;-70
2022/03/03 08:45:20;;;;;;;0.13;0.13;;;0.10;1.00;226.50;231333.00;;;;5066983;28;20663;-70
2022/03/03 08:47:57;;;;;;;0.20;0.20;;;0.20;1.00;226.50;231333.00;;;;5067264;28;20194;-72
2022/03/03 08:50:32;;;;;;;0.20;0.20;;;0.20;1.00;226.50;231333.00;;;;5068707;28;20261;-71
2022/03/03 08:53:04;;;;;;;0.20;0.20;;;0.30;99.90;226.50;231333.00;;;;5068997;28;20528;-70
2022/03/03 08:55:34;;;;;;;0.10;0.10;;;0.30;99.90;226.50;231333.00;;;;5068872;28;20246;-70
2022/03/03 08:58:03;;;;;;;0.10;0.10;;;0.30;67.20;226.50;231333.00;;;;5068570;28;20201;-70
2022/03/03 09:00:31;;;;;;;0.10;0.10;;;0.30;1.00;226.50;231333.00;;;;5068714;28;20186;-70
2022/03/03 09:03:01;;;;;;;0.10;0.10;;;0.40;21.30;226.50;231333.00;;;;5067024;28;20221;-71
2022/03/03 09:05:29;;;;;;;0.10;0.10;;;0.50;60.40;226.50;231333.00;;;;5066912;28;20200;-71
2022/03/03 09:07:57;;;;;;;0.10;0.10;;;0.60;99.90;226.50;231333.00;;;;5067528;28;20213;-71
2022/03/03 09:10:26;;;;;;;0.10;0.10;;;0.80;99.90;226.50;231333.00;;;;5067786;28;20225;-71
2022/03/03 09:12:55;;;;;;;0.10;0.10;;;0.90;48.10;226.50;231333.00;;;;5067902;28;20551;-71
2022/03/03 09:15:22;;;;;;;0.15;0.15;;;1.10;1.00;226.50;231333.00;;;;5067643;28;20190;-71
2022/03/03 09:17:50;;;;;;;0.10;0.10;;;1.20;1.00;226.50;231333.00;;;;5066343;28;20202;-71
2022/03/03 09:20:18;;;;;;;0.10;0.10;;;1.30;1.00;226.50;231333.00;;;;5066434;28;20615;-71
2022/03/03 09:22:52;;;;;;;0.10;0.10;;;1.40;1.00;226.50;231333.00;;;;5067113;28;20706;-71
2022/03/03 09:25:21;;;;;;;0.10;0.10;;;1.50;1.00;226.50;231333.00;;;;5065408;28;20834;-71
2022/03/03 09:27:50;;;;;;;0.10;0.10;;;1.60;1.00;226.50;231333.00;;;;5066087;28;20251;-71
2022/03/03 09:30:19;;;;;;;0.10;0.10;;;1.70;1.00;226.50;231333.00;;;;5066394;28;20240;-71
2022/03/03 09:32:47;;;;;;;0.10;0.10;;;1.80;1.00;226.50;231333.00;;;;5065160;28;20228;-71
2022/03/03 09:35:15;;;;;;;0.10;0.10;;;1.90;1.00;226.50;231333.00;;;;5061441;28;20326;-71
2022/03/03 09:37:43;;;;;;;0.10;0.10;;;2.00;1.00;226.50;231333.00;;;;5063258;28;20185;-71
2022/03/03 09:40:12;;;;;;;0.10;0.10;;;2.20;1.00;226.50;231333.00;;;;5063669;28;20262;-71
2022/03/03 09:42:40;;;;;;;0.10;0.10;;;2.30;99.90;226.50;231333.00;;;;5060886;28;20232;-69
2022/03/03 09:45:11;;;;;;;0.10;0.10;;;2.30;99.90;226.50;231333.00;;;;5064713;28;20222;-73
2022/03/03 09:47:39;;;;;;;0.20;0.20;;;2.50;99.90;226.50;231333.00;;;;5064839;28;20194;-71
2022/03/03 09:50:09;;;;;;;0.13;0.13;;;2.50;99.90;226.50;231333.00;;;;5065149;28;20198;-70
2022/03/03 09:52:38;;;;;;;0.10;0.10;;;2.60;99.90;226.50;231333.00;;;;5066972;28;20213;-70
2022/03/03 09:55:07;;;;;;;0.10;0.10;;;2.70;99.90;226.50;231333.00;;;;5066000;28;20224;-71
2022/03/03 09:57:35;;;;;;;0.10;0.10;;;2.80;99.90;226.50;231333.00;;;;5065091;28;20245;-70
2022/03/03 10:00:08;;;;;;;0.10;0.10;;;2.90;99.90;226.50;231333.00;;;;5064716;28;20305;-70
2022/03/03 10:02:58;;;;;;;0.10;0.10;;;3.00;99.90;226.50;231333.00;;;;5065198;28;20661;-72
2022/03/03 10:05:32;;;;;;;0.10;0.10;;;3.10;99.90;226.50;231333.00;;;;5066511;28;20205;-72
2022/03/03 10:08:02;;;;;;;0.10;0.10;;;3.30;99.90;226.50;231333.00;;;;5065628;28;20202;-70
2022/03/03 10:10:31;;;;;;;0.13;0.13;;;3.40;99.90;226.50;231333.00;;;;5065268;28;20206;-70
2022/03/03 10:12:59;;;;;;;0.10;0.10;;;3.50;99.90;226.50;231333.00;;;;5066327;28;20193;-70
2022/03/03 10:15:30;;;;;;;0.10;0.10;;;3.60;96.50;226.50;231333.00;;;;5066271;28;20225;-70
2022/03/03 10:18:05;;;;;;;0.10;0.10;;;3.70;60.40;226.50;231333.00;;;;5066231;28;20202;-70
2022/03/03 10:20:46;;;;;;;0.10;0.10;;;3.80;49.40;226.50;231333.00;;;;5066171;28;20208;-70
2022/03/03 10:23:15;;;;;;;0.10;0.10;;;3.90;40.40;226.50;231333.00;;;;5066154;28;20202;-69
2022/03/03 10:25:46;;;;;;;0.10;0.10;;;4.00;38.00;226.50;231333.00;;;;5065723;28;20197;-69
2022/03/03 10:28:19;;;;;;;0.10;0.10;;;4.10;28.70;226.50;231333.00;;;;5066369;28;20202;-69
2022/03/03 10:30:55;;;;;;;0.10;0.10;;;4.20;24.60;226.50;231333.00;;;;5065974;28;20206;-70
2022/03/03 10:33:28;;;;;;;0.10;0.10;;;4.30;22.30;226.50;231333.00;;;;5066572;28;20213;-71
2022/03/03 10:36:12;;;;;;;0.10;0.10;;;4.30;16.30;226.50;231333.00;;;;5065190;28;20283;-71
2022/03/03 10:38:53;;;;;;;0.15;0.15;;;4.40;14.20;226.50;231333.00;;;;5065073;28;20205;-71
2022/03/03 10:41:30;;;;;;;0.10;0.10;;;4.50;30.00;226.50;231333.00;;;;5065755;28;20268;-71
2022/03/03 10:44:01;;;;;;;0.10;0.10;;;4.60;14.10;226.50;231333.00;;;;5065614;28;20731;-70
2022/03/03 10:46:30;;;;;;;0.10;0.10;;;4.60;11.80;226.50;231333.00;;;;5064109;28;20280;-70
2022/03/03 10:48:59;;;;;;;0.10;0.10;;;4.70;11.60;226.50;231333.00;;;;5065858;28;20201;-70
2022/03/03 10:51:33;;;;;;;0.10;0.10;;;4.80;9.40;226.50;231333.00;;;;5065761;28;20244;-70
2022/03/03 10:54:04;;;;;;;0.10;0.10;;;4.80;8.00;226.50;231333.00;;;;5068069;28;20545;-69
2022/03/03 10:56:52;;;;;;;0.10;0.10;;;4.90;7.60;226.50;231333.00;;;;5066332;28;20286;-69
2022/03/03 10:59:25;;;;;;;0.10;0.10;;;4.90;8.00;226.50;231333.00;;;;5065428;28;20304;-70